sensor_id;sensor_type;location;lat;lon;timestamp;P1;durP1;ratioP1;P2;durP2;ratioP2
37205;SDS011;23099;42.636;23.198;2023-05-07T00:01:58;9.07;;;3.10;;
37205;SDS011;23099;42.636;23.198;2023-05-07T00:04:24;8.93;;;3.47;;
37205;SDS011;23099;42.636;23.198;2023-05-07T00:06:51;8.15;;;3.65;;
37205;SDS011;23099;42.636;23.198;2023-05-07T00:09:18;9.65;;;3.97;;
37205;SDS011;23099;42.636;23.198;2023-05-07T00:11:44;7.53;;;3.20;;
37205;SDS011;23099;42.636;23.198;2023-05-07T00:14:12;9.20;;;3.17;;
37205;SDS011;23099;42.636;23.198;2023-05-07T00:16:39;5.30;;;2.78;;
37205;SDS011;23099;42.636;23.198;2023-05-07T00:19:06;5.38;;;2.78;;
37205;SDS011;23099;42.636;23.198;2023-05-07T00:21:32;6.82;;;2.70;;
37205;SDS011;23099;42.636;23.198;2023-05-07T00:23:59;7.18;;;2.67;;
37205;SDS011;23099;42.636;23.198;2023-05-07T00:26:26;6.82;;;2.45;;
37205;SDS011;23099;42.636;23.198;2023-05-07T00:28:52;9.00;;;3.30;;
37205;SDS011;23099;42.636;23.198;2023-05-07T00:31:20;6.30;;;2.47;;
37205;SDS011;23099;42.636;23.198;2023-05-07T00:33:47;7.32;;;2.63;;
37205;SDS011;23099;42.636;23.198;2023-05-07T00:36:14;6.65;;;3.38;;
37205;SDS011;23099;42.636;23.198;2023-05-07T00:38:40;7.72;;;3.90;;
37205;SDS011;23099;42.636;23.198;2023-05-07T00:41:07;8.52;;;3.58;;
37205;SDS011;23099;42.636;23.198;2023-05-07T00:43:34;9.50;;;3.97;;
37205;SDS011;23099;42.636;23.198;2023-05-07T00:46:00;5.28;;;2.50;;
37205;SDS011;23099;42.636;23.198;2023-05-07T00:48:29;8.93;;;3.60;;
37205;SDS011;23099;42.636;23.198;2023-05-07T00:53:23;7.97;;;2.97;;
37205;SDS011;23099;42.636;23.198;2023-05-07T00:55:49;6.75;;;2.40;;
37205;SDS011;23099;42.636;23.198;2023-05-07T00:58:16;6.72;;;2.50;;
37205;SDS011;23099;42.636;23.198;2023-05-07T01:00:43;5.80;;;2.75;;
37205;SDS011;23099;42.636;23.198;2023-05-07T01:03:10;8.15;;;3.58;;
37205;SDS011;23099;42.636;23.198;2023-05-07T01:05:38;12.18;;;5.70;;
37205;SDS011;23099;42.636;23.198;2023-05-07T01:08:05;10.82;;;5.47;;
37205;SDS011;23099;42.636;23.198;2023-05-07T01:10:32;13.60;;;5.25;;
37205;SDS011;23099;42.636;23.198;2023-05-07T01:12:59;12.52;;;5.82;;
37205;SDS011;23099;42.636;23.198;2023-05-07T01:15:26;13.18;;;6.00;;
37205;SDS011;23099;42.636;23.198;2023-05-07T01:17:53;10.52;;;5.38;;
37205;SDS011;23099;42.636;23.198;2023-05-07T01:20:20;8.60;;;4.38;;
37205;SDS011;23099;42.636;23.198;2023-05-07T01:22:50;9.80;;;4.68;;
37205;SDS011;23099;42.636;23.198;2023-05-07T01:25:17;11.48;;;4.70;;
37205;SDS011;23099;42.636;23.198;2023-05-07T01:27:44;10.52;;;3.97;;
37205;SDS011;23099;42.636;23.198;2023-05-07T01:30:11;10.07;;;4.32;;
37205;SDS011;23099;42.636;23.198;2023-05-07T01:32:40;10.65;;;4.07;;
37205;SDS011;23099;42.636;23.198;2023-05-07T01:35:20;11.50;;;4.05;;
37205;SDS011;23099;42.636;23.198;2023-05-07T01:37:51;8.07;;;4.07;;
37205;SDS011;23099;42.636;23.198;2023-05-07T01:40:20;8.10;;;4.03;;
37205;SDS011;23099;42.636;23.198;2023-05-07T01:42:47;8.23;;;3.42;;
37205;SDS011;23099;42.636;23.198;2023-05-07T01:45:14;7.00;;;3.05;;
37205;SDS011;23099;42.636;23.198;2023-05-07T01:47:41;7.40;;;3.13;;
37205;SDS011;23099;42.636;23.198;2023-05-07T01:50:09;7.28;;;3.38;;
37205;SDS011;23099;42.636;23.198;2023-05-07T01:52:36;8.13;;;3.38;;
37205;SDS011;23099;42.636;23.198;2023-05-07T01:55:06;6.60;;;2.85;;
37205;SDS011;23099;42.636;23.198;2023-05-07T01:57:33;7.05;;;3.15;;
37205;SDS011;23099;42.636;23.198;2023-05-07T02:00:00;6.10;;;2.85;;
37205;SDS011;23099;42.636;23.198;2023-05-07T02:02:27;6.90;;;3.45;;
37205;SDS011;23099;42.636;23.198;2023-05-07T02:04:54;9.15;;;3.35;;
37205;SDS011;23099;42.636;23.198;2023-05-07T02:07:21;9.23;;;4.32;;
37205;SDS011;23099;42.636;23.198;2023-05-07T02:09:47;11.43;;;4.05;;
37205;SDS011;23099;42.636;23.198;2023-05-07T02:12:15;8.63;;;4.28;;
37205;SDS011;23099;42.636;23.198;2023-05-07T02:14:42;9.10;;;3.63;;
37205;SDS011;23099;42.636;23.198;2023-05-07T02:17:09;8.40;;;3.40;;
37205;SDS011;23099;42.636;23.198;2023-05-07T02:19:35;7.80;;;3.78;;
37205;SDS011;23099;42.636;23.198;2023-05-07T02:22:02;15.02;;;6.72;;
37205;SDS011;23099;42.636;23.198;2023-05-07T02:24:29;15.48;;;9.50;;
37205;SDS011;23099;42.636;23.198;2023-05-07T02:26:55;15.25;;;7.90;;
37205;SDS011;23099;42.636;23.198;2023-05-07T02:29:23;13.98;;;8.00;;
37205;SDS011;23099;42.636;23.198;2023-05-07T02:31:50;10.88;;;5.72;;
37205;SDS011;23099;42.636;23.198;2023-05-07T02:34:18;9.73;;;5.37;;
37205;SDS011;23099;42.636;23.198;2023-05-07T02:36:45;18.85;;;8.55;;
37205;SDS011;23099;42.636;23.198;2023-05-07T02:39:11;12.55;;;5.63;;
37205;SDS011;23099;42.636;23.198;2023-05-07T02:41:38;10.20;;;3.92;;
37205;SDS011;23099;42.636;23.198;2023-05-07T02:44:05;7.75;;;3.50;;
37205;SDS011;23099;42.636;23.198;2023-05-07T02:46:33;8.85;;;4.43;;
37205;SDS011;23099;42.636;23.198;2023-05-07T02:49:00;14.90;;;6.88;;
37205;SDS011;23099;42.636;23.198;2023-05-07T02:51:26;12.90;;;6.97;;
37205;SDS011;23099;42.636;23.198;2023-05-07T02:53:53;10.43;;;3.83;;
37205;SDS011;23099;42.636;23.198;2023-05-07T02:56:20;8.90;;;4.60;;
37205;SDS011;23099;42.636;23.198;2023-05-07T02:58:46;11.13;;;6.03;;
37205;SDS011;23099;42.636;23.198;2023-05-07T03:01:13;12.27;;;6.93;;
37205;SDS011;23099;42.636;23.198;2023-05-07T03:03:41;12.27;;;6.03;;
37205;SDS011;23099;42.636;23.198;2023-05-07T03:06:08;9.65;;;5.80;;
37205;SDS011;23099;42.636;23.198;2023-05-07T03:08:35;11.35;;;6.32;;
37205;SDS011;23099;42.636;23.198;2023-05-07T03:11:02;11.88;;;5.60;;
37205;SDS011;23099;42.636;23.198;2023-05-07T03:13:29;11.38;;;5.60;;
37205;SDS011;23099;42.636;23.198;2023-05-07T03:15:55;13.10;;;6.53;;
37205;SDS011;23099;42.636;23.198;2023-05-07T03:18:22;11.60;;;5.82;;
37205;SDS011;23099;42.636;23.198;2023-05-07T03:20:51;12.95;;;5.55;;
37205;SDS011;23099;42.636;23.198;2023-05-07T03:23:18;11.85;;;6.13;;
37205;SDS011;23099;42.636;23.198;2023-05-07T03:25:44;9.00;;;4.88;;
37205;SDS011;23099;42.636;23.198;2023-05-07T03:28:11;8.07;;;3.78;;
37205;SDS011;23099;42.636;23.198;2023-05-07T03:30:38;8.55;;;3.92;;
37205;SDS011;23099;42.636;23.198;2023-05-07T03:33:04;10.15;;;6.13;;
37205;SDS011;23099;42.636;23.198;2023-05-07T03:35:31;11.80;;;6.18;;
37205;SDS011;23099;42.636;23.198;2023-05-07T03:37:59;11.75;;;6.10;;
37205;SDS011;23099;42.636;23.198;2023-05-07T03:40:26;9.75;;;5.50;;
37205;SDS011;23099;42.636;23.198;2023-05-07T03:42:53;11.98;;;6.10;;
37205;SDS011;23099;42.636;23.198;2023-05-07T03:45:19;12.25;;;6.75;;
37205;SDS011;23099;42.636;23.198;2023-05-07T03:47:46;12.68;;;6.50;;
37205;SDS011;23099;42.636;23.198;2023-05-07T03:50:13;13.55;;;6.10;;
37205;SDS011;23099;42.636;23.198;2023-05-07T03:52:39;12.20;;;7.00;;
37205;SDS011;23099;42.636;23.198;2023-05-07T03:55:08;17.30;;;11.52;;
37205;SDS011;23099;42.636;23.198;2023-05-07T03:57:35;19.90;;;13.38;;
37205;SDS011;23099;42.636;23.198;2023-05-07T04:00:02;16.83;;;10.65;;
37205;SDS011;23099;42.636;23.198;2023-05-07T04:02:32;21.65;;;13.52;;
37205;SDS011;23099;42.636;23.198;2023-05-07T04:04:59;19.60;;;13.13;;
37205;SDS011;23099;42.636;23.198;2023-05-07T04:07:25;14.57;;;9.63;;
37205;SDS011;23099;42.636;23.198;2023-05-07T04:09:52;17.30;;;8.50;;
37205;SDS011;23099;42.636;23.198;2023-05-07T04:12:20;13.30;;;7.65;;
37205;SDS011;23099;42.636;23.198;2023-05-07T04:14:47;16.73;;;9.65;;
37205;SDS011;23099;42.636;23.198;2023-05-07T04:17:13;16.42;;;8.32;;
37205;SDS011;23099;42.636;23.198;2023-05-07T04:19:40;11.50;;;5.32;;
37205;SDS011;23099;42.636;23.198;2023-05-07T04:22:10;8.95;;;4.90;;
37205;SDS011;23099;42.636;23.198;2023-05-07T04:24:37;11.00;;;6.60;;
37205;SDS011;23099;42.636;23.198;2023-05-07T04:27:03;11.95;;;7.03;;
37205;SDS011;23099;42.636;23.198;2023-05-07T04:29:32;13.40;;;6.60;;
37205;SDS011;23099;42.636;23.198;2023-05-07T04:31:59;9.10;;;5.28;;
37205;SDS011;23099;42.636;23.198;2023-05-07T04:34:26;9.80;;;5.70;;
37205;SDS011;23099;42.636;23.198;2023-05-07T04:36:53;11.20;;;5.97;;
37205;SDS011;23099;42.636;23.198;2023-05-07T04:39:19;12.75;;;5.88;;
37205;SDS011;23099;42.636;23.198;2023-05-07T04:41:46;12.45;;;5.88;;
37205;SDS011;23099;42.636;23.198;2023-05-07T04:44:13;12.20;;;5.55;;
37205;SDS011;23099;42.636;23.198;2023-05-07T04:46:41;11.48;;;5.00;;
37205;SDS011;23099;42.636;23.198;2023-05-07T04:49:07;8.55;;;4.78;;
37205;SDS011;23099;42.636;23.198;2023-05-07T04:51:35;9.90;;;4.32;;
37205;SDS011;23099;42.636;23.198;2023-05-07T04:54:03;8.50;;;4.78;;
37205;SDS011;23099;42.636;23.198;2023-05-07T04:56:30;8.85;;;3.95;;
37205;SDS011;23099;42.636;23.198;2023-05-07T04:58:56;8.65;;;4.65;;
37205;SDS011;23099;42.636;23.198;2023-05-07T05:01:23;13.57;;;7.30;;
37205;SDS011;23099;42.636;23.198;2023-05-07T05:03:51;12.73;;;7.38;;
37205;SDS011;23099;42.636;23.198;2023-05-07T05:06:18;10.45;;;6.35;;
37205;SDS011;23099;42.636;23.198;2023-05-07T05:08:44;10.68;;;4.85;;
37205;SDS011;23099;42.636;23.198;2023-05-07T05:11:11;9.45;;;4.45;;
37205;SDS011;23099;42.636;23.198;2023-05-07T05:13:38;15.27;;;4.70;;
37205;SDS011;23099;42.636;23.198;2023-05-07T05:19:28;12.63;;;4.25;;
37205;SDS011;23099;42.636;23.198;2023-05-07T05:21:54;10.18;;;5.10;;
37205;SDS011;23099;42.636;23.198;2023-05-07T05:24:21;14.07;;;5.68;;
37205;SDS011;23099;42.636;23.198;2023-05-07T05:30:10;10.82;;;4.82;;
37205;SDS011;23099;42.636;23.198;2023-05-07T05:32:37;15.00;;;4.82;;
37205;SDS011;23099;42.636;23.198;2023-05-07T05:35:06;9.98;;;4.53;;
37205;SDS011;23099;42.636;23.198;2023-05-07T05:37:33;10.48;;;4.80;;
37205;SDS011;23099;42.636;23.198;2023-05-07T05:40:00;12.90;;;4.80;;
37205;SDS011;23099;42.636;23.198;2023-05-07T05:42:27;9.57;;;4.13;;
37205;SDS011;23099;42.636;23.198;2023-05-07T05:44:53;8.07;;;4.13;;
37205;SDS011;23099;42.636;23.198;2023-05-07T05:47:20;11.23;;;5.00;;
37205;SDS011;23099;42.636;23.198;2023-05-07T05:49:46;8.68;;;4.38;;
37205;SDS011;23099;42.636;23.198;2023-05-07T05:52:14;9.88;;;4.85;;
37205;SDS011;23099;42.636;23.198;2023-05-07T05:54:41;12.60;;;5.38;;
37205;SDS011;23099;42.636;23.198;2023-05-07T05:57:08;10.50;;;4.80;;
37205;SDS011;23099;42.636;23.198;2023-05-07T06:02:56;11.13;;;5.38;;
37205;SDS011;23099;42.636;23.198;2023-05-07T06:05:23;10.43;;;4.50;;
37205;SDS011;23099;42.636;23.198;2023-05-07T06:07:51;10.02;;;4.75;;
37205;SDS011;23099;42.636;23.198;2023-05-07T06:10:18;8.35;;;4.53;;
37205;SDS011;23099;42.636;23.198;2023-05-07T06:12:44;10.23;;;4.10;;
37205;SDS011;23099;42.636;23.198;2023-05-07T06:15:11;8.15;;;4.50;;
37205;SDS011;23099;42.636;23.198;2023-05-07T06:17:38;11.18;;;4.50;;
37205;SDS011;23099;42.636;23.198;2023-05-07T06:20:05;8.43;;;4.30;;
37205;SDS011;23099;42.636;23.198;2023-05-07T06:22:32;10.88;;;4.95;;
37205;SDS011;23099;42.636;23.198;2023-05-07T06:25:00;11.15;;;4.90;;
37205;SDS011;23099;42.636;23.198;2023-05-07T06:27:27;9.77;;;4.72;;
37205;SDS011;23099;42.636;23.198;2023-05-07T06:29:54;10.18;;;4.55;;
37205;SDS011;23099;42.636;23.198;2023-05-07T06:32:21;9.10;;;3.80;;
37205;SDS011;23099;42.636;23.198;2023-05-07T06:34:47;8.05;;;3.47;;
37205;SDS011;23099;42.636;23.198;2023-05-07T06:37:14;8.85;;;3.83;;
37205;SDS011;23099;42.636;23.198;2023-05-07T06:39:41;9.10;;;3.47;;
37205;SDS011;23099;42.636;23.198;2023-05-07T06:42:09;8.10;;;3.42;;
37205;SDS011;23099;42.636;23.198;2023-05-07T06:44:35;7.47;;;2.67;;
37205;SDS011;23099;42.636;23.198;2023-05-07T06:47:02;10.68;;;4.05;;
37205;SDS011;23099;42.636;23.198;2023-05-07T06:49:30;7.63;;;3.63;;
37205;SDS011;23099;42.636;23.198;2023-05-07T06:51:57;8.30;;;4.15;;
37205;SDS011;23099;42.636;23.198;2023-05-07T06:54:24;11.02;;;4.28;;
37205;SDS011;23099;42.636;23.198;2023-05-07T06:56:50;11.52;;;4.40;;
37205;SDS011;23099;42.636;23.198;2023-05-07T06:59:18;10.05;;;5.30;;
37205;SDS011;23099;42.636;23.198;2023-05-07T07:01:45;10.23;;;4.97;;
37205;SDS011;23099;42.636;23.198;2023-05-07T07:04:12;10.90;;;5.25;;
37205;SDS011;23099;42.636;23.198;2023-05-07T07:06:39;12.25;;;6.60;;
37205;SDS011;23099;42.636;23.198;2023-05-07T07:09:05;11.32;;;6.55;;
37205;SDS011;23099;42.636;23.198;2023-05-07T07:11:32;10.80;;;5.72;;
37205;SDS011;23099;42.636;23.198;2023-05-07T07:13:59;9.85;;;5.60;;
37205;SDS011;23099;42.636;23.198;2023-05-07T07:16:27;13.73;;;8.25;;
37205;SDS011;23099;42.636;23.198;2023-05-07T07:18:53;30.50;;;15.85;;
37205;SDS011;23099;42.636;23.198;2023-05-07T07:21:20;15.07;;;7.28;;
37205;SDS011;23099;42.636;23.198;2023-05-07T07:23:47;13.45;;;5.32;;
37205;SDS011;23099;42.636;23.198;2023-05-07T07:26:13;8.35;;;4.68;;
37205;SDS011;23099;42.636;23.198;2023-05-07T07:28:43;9.68;;;4.28;;
37205;SDS011;23099;42.636;23.198;2023-05-07T07:31:10;10.70;;;4.32;;
37205;SDS011;23099;42.636;23.198;2023-05-07T07:33:38;8.75;;;4.40;;
37205;SDS011;23099;42.636;23.198;2023-05-07T07:36:05;7.15;;;3.67;;
37205;SDS011;23099;42.636;23.198;2023-05-07T07:38:33;6.95;;;3.83;;
37205;SDS011;23099;42.636;23.198;2023-05-07T07:41:00;9.07;;;4.00;;
37205;SDS011;23099;42.636;23.198;2023-05-07T07:43:26;7.57;;;3.25;;
37205;SDS011;23099;42.636;23.198;2023-05-07T07:45:53;7.03;;;3.42;;
37205;SDS011;23099;42.636;23.198;2023-05-07T07:48:20;13.73;;;4.82;;
37205;SDS011;23099;42.636;23.198;2023-05-07T07:50:49;12.35;;;4.90;;
37205;SDS011;23099;42.636;23.198;2023-05-07T07:53:16;8.98;;;4.20;;
37205;SDS011;23099;42.636;23.198;2023-05-07T07:55:43;19.95;;;5.35;;
37205;SDS011;23099;42.636;23.198;2023-05-07T07:58:10;8.88;;;4.38;;
37205;SDS011;23099;42.636;23.198;2023-05-07T08:00:36;7.85;;;3.65;;
37205;SDS011;23099;42.636;23.198;2023-05-07T08:03:03;7.90;;;4.15;;
37205;SDS011;23099;42.636;23.198;2023-05-07T08:05:30;9.57;;;4.45;;
37205;SDS011;23099;42.636;23.198;2023-05-07T08:07:59;10.10;;;4.47;;
37205;SDS011;23099;42.636;23.198;2023-05-07T08:10:26;9.35;;;4.60;;
37205;SDS011;23099;42.636;23.198;2023-05-07T08:12:52;11.55;;;4.63;;
37205;SDS011;23099;42.636;23.198;2023-05-07T08:15:19;9.18;;;4.70;;
37205;SDS011;23099;42.636;23.198;2023-05-07T08:17:46;6.68;;;3.78;;
37205;SDS011;23099;42.636;23.198;2023-05-07T08:20:12;8.18;;;4.15;;
37205;SDS011;23099;42.636;23.198;2023-05-07T08:22:39;11.93;;;4.68;;
37205;SDS011;23099;42.636;23.198;2023-05-07T08:25:08;11.88;;;5.07;;
37205;SDS011;23099;42.636;23.198;2023-05-07T08:27:35;7.72;;;4.35;;
37205;SDS011;23099;42.636;23.198;2023-05-07T08:30:02;9.38;;;4.40;;
37205;SDS011;23099;42.636;23.198;2023-05-07T08:32:29;11.30;;;4.47;;
37205;SDS011;23099;42.636;23.198;2023-05-07T08:34:56;8.40;;;3.95;;
37205;SDS011;23099;42.636;23.198;2023-05-07T08:37:22;9.10;;;4.15;;
37205;SDS011;23099;42.636;23.198;2023-05-07T08:39:49;8.57;;;4.47;;
37205;SDS011;23099;42.636;23.198;2023-05-07T08:42:17;8.73;;;3.53;;
37205;SDS011;23099;42.636;23.198;2023-05-07T08:44:46;7.57;;;4.18;;
37205;SDS011;23099;42.636;23.198;2023-05-07T08:47:14;7.20;;;4.20;;
37205;SDS011;23099;42.636;23.198;2023-05-07T08:49:42;7.35;;;3.75;;
37205;SDS011;23099;42.636;23.198;2023-05-07T08:52:09;9.07;;;3.58;;
37205;SDS011;23099;42.636;23.198;2023-05-07T08:54:37;8.75;;;4.30;;
37205;SDS011;23099;42.636;23.198;2023-05-07T08:57:05;7.80;;;3.70;;
37205;SDS011;23099;42.636;23.198;2023-05-07T08:59:33;8.27;;;3.47;;
37205;SDS011;23099;42.636;23.198;2023-05-07T09:02:00;9.57;;;3.45;;
37205;SDS011;23099;42.636;23.198;2023-05-07T09:04:27;7.53;;;3.67;;
37205;SDS011;23099;42.636;23.198;2023-05-07T09:06:53;8.23;;;3.90;;
37205;SDS011;23099;42.636;23.198;2023-05-07T09:09:21;6.85;;;3.55;;
37205;SDS011;23099;42.636;23.198;2023-05-07T09:11:48;9.20;;;4.30;;
37205;SDS011;23099;42.636;23.198;2023-05-07T09:14:15;9.30;;;3.53;;
37205;SDS011;23099;42.636;23.198;2023-05-07T09:16:44;9.48;;;3.83;;
37205;SDS011;23099;42.636;23.198;2023-05-07T09:19:12;9.10;;;3.88;;
37205;SDS011;23099;42.636;23.198;2023-05-07T09:21:39;7.50;;;3.58;;
37205;SDS011;23099;42.636;23.198;2023-05-07T09:24:06;9.50;;;3.80;;
37205;SDS011;23099;42.636;23.198;2023-05-07T09:26:32;6.68;;;3.42;;
37205;SDS011;23099;42.636;23.198;2023-05-07T09:28:59;6.38;;;3.42;;
37205;SDS011;23099;42.636;23.198;2023-05-07T09:31:27;10.13;;;3.78;;
37205;SDS011;23099;42.636;23.198;2023-05-07T09:33:55;7.35;;;2.70;;
37205;SDS011;23099;42.636;23.198;2023-05-07T09:36:21;8.02;;;2.50;;
37205;SDS011;23099;42.636;23.198;2023-05-07T09:38:49;6.03;;;2.50;;
37205;SDS011;23099;42.636;23.198;2023-05-07T09:41:16;7.68;;;2.63;;
37205;SDS011;23099;42.636;23.198;2023-05-07T09:43:43;5.80;;;3.00;;
37205;SDS011;23099;42.636;23.198;2023-05-07T09:46:11;5.97;;;2.95;;
37205;SDS011;23099;42.636;23.198;2023-05-07T09:48:39;5.18;;;2.55;;
37205;SDS011;23099;42.636;23.198;2023-05-07T09:51:11;6.20;;;2.60;;
37205;SDS011;23099;42.636;23.198;2023-05-07T09:53:44;5.95;;;2.97;;
37205;SDS011;23099;42.636;23.198;2023-05-07T09:56:12;6.32;;;2.88;;
37205;SDS011;23099;42.636;23.198;2023-05-07T10:01:07;7.10;;;2.72;;
37205;SDS011;23099;42.636;23.198;2023-05-07T10:03:36;8.45;;;2.80;;
37205;SDS011;23099;42.636;23.198;2023-05-07T10:06:05;7.50;;;2.67;;
37205;SDS011;23099;42.636;23.198;2023-05-07T10:08:35;5.20;;;2.20;;
37205;SDS011;23099;42.636;23.198;2023-05-07T10:11:03;6.88;;;2.42;;
37205;SDS011;23099;42.636;23.198;2023-05-07T10:13:30;5.30;;;2.33;;
37205;SDS011;23099;42.636;23.198;2023-05-07T10:15:59;7.00;;;2.60;;
37205;SDS011;23099;42.636;23.198;2023-05-07T10:18:26;5.90;;;2.20;;
37205;SDS011;23099;42.636;23.198;2023-05-07T10:20:54;9.43;;;2.40;;
37205;SDS011;23099;42.636;23.198;2023-05-07T10:23:25;4.30;;;1.80;;
37205;SDS011;23099;42.636;23.198;2023-05-07T10:25:55;6.55;;;2.03;;
37205;SDS011;23099;42.636;23.198;2023-05-07T10:28:23;4.82;;;2.30;;
37205;SDS011;23099;42.636;23.198;2023-05-07T10:30:56;4.60;;;2.10;;
37205;SDS011;23099;42.636;23.198;2023-05-07T10:33:31;5.70;;;2.53;;
37205;SDS011;23099;42.636;23.198;2023-05-07T10:36:00;5.90;;;1.80;;
37205;SDS011;23099;42.636;23.198;2023-05-07T10:38:29;5.65;;;2.20;;
37205;SDS011;23099;42.636;23.198;2023-05-07T10:40:57;5.65;;;2.00;;
37205;SDS011;23099;42.636;23.198;2023-05-07T10:46:09;8.40;;;2.72;;
37205;SDS011;23099;42.636;23.198;2023-05-07T10:48:49;6.03;;;2.15;;
37205;SDS011;23099;42.636;23.198;2023-05-07T10:51:32;5.40;;;2.28;;
37205;SDS011;23099;42.636;23.198;2023-05-07T10:54:18;7.07;;;2.70;;
37205;SDS011;23099;42.636;23.198;2023-05-07T10:56:47;4.57;;;2.17;;
37205;SDS011;23099;42.636;23.198;2023-05-07T10:59:34;4.85;;;2.17;;
37205;SDS011;23099;42.636;23.198;2023-05-07T11:02:06;6.93;;;2.30;;
37205;SDS011;23099;42.636;23.198;2023-05-07T11:04:34;7.43;;;2.40;;
37205;SDS011;23099;42.636;23.198;2023-05-07T11:07:25;5.50;;;2.30;;
37205;SDS011;23099;42.636;23.198;2023-05-07T11:09:56;5.00;;;2.17;;
37205;SDS011;23099;42.636;23.198;2023-05-07T11:15:38;5.35;;;1.98;;
37205;SDS011;23099;42.636;23.198;2023-05-07T11:18:07;7.70;;;2.47;;
37205;SDS011;23099;42.636;23.198;2023-05-07T11:20:47;6.00;;;2.28;;
37205;SDS011;23099;42.636;23.198;2023-05-07T11:26:42;7.80;;;2.45;;
37205;SDS011;23099;42.636;23.198;2023-05-07T11:29:12;7.30;;;2.00;;
37205;SDS011;23099;42.636;23.198;2023-05-07T11:31:40;6.70;;;2.30;;
37205;SDS011;23099;42.636;23.198;2023-05-07T11:34:06;9.15;;;2.40;;
37205;SDS011;23099;42.636;23.198;2023-05-07T11:36:34;5.63;;;1.93;;
37205;SDS011;23099;42.636;23.198;2023-05-07T11:39:01;5.05;;;2.15;;
37205;SDS011;23099;42.636;23.198;2023-05-07T11:41:34;7.20;;;1.98;;
37205;SDS011;23099;42.636;23.198;2023-05-07T11:44:02;5.03;;;1.88;;
37205;SDS011;23099;42.636;23.198;2023-05-07T11:46:30;8.52;;;2.60;;
37205;SDS011;23099;42.636;23.198;2023-05-07T11:48:57;5.78;;;2.10;;
37205;SDS011;23099;42.636;23.198;2023-05-07T11:51:24;8.40;;;1.98;;
37205;SDS011;23099;42.636;23.198;2023-05-07T11:56:19;4.43;;;1.52;;
37205;SDS011;23099;42.636;23.198;2023-05-07T11:58:46;5.97;;;1.90;;
37205;SDS011;23099;42.636;23.198;2023-05-07T12:01:14;7.22;;;1.42;;
37205;SDS011;23099;42.636;23.198;2023-05-07T12:03:45;7.68;;;1.67;;
37205;SDS011;23099;42.636;23.198;2023-05-07T12:06:12;5.70;;;2.25;;
37205;SDS011;23099;42.636;23.198;2023-05-07T12:08:41;5.60;;;1.95;;
37205;SDS011;23099;42.636;23.198;2023-05-07T12:13:36;4.72;;;1.80;;
37205;SDS011;23099;42.636;23.198;2023-05-07T12:16:03;6.15;;;1.60;;
37205;SDS011;23099;42.636;23.198;2023-05-07T12:18:32;5.40;;;1.60;;
37205;SDS011;23099;42.636;23.198;2023-05-07T12:21:01;4.85;;;1.60;;
37205;SDS011;23099;42.636;23.198;2023-05-07T12:23:28;6.45;;;1.60;;
37205;SDS011;23099;42.636;23.198;2023-05-07T12:25:55;6.15;;;1.50;;
37205;SDS011;23099;42.636;23.198;2023-05-07T12:28:22;6.97;;;1.90;;
37205;SDS011;23099;42.636;23.198;2023-05-07T12:30:50;6.72;;;1.48;;
37205;SDS011;23099;42.636;23.198;2023-05-07T12:33:18;6.72;;;2.22;;
37205;SDS011;23099;42.636;23.198;2023-05-07T12:35:46;5.72;;;1.70;;
37205;SDS011;23099;42.636;23.198;2023-05-07T12:38:16;8.15;;;1.92;;
37205;SDS011;23099;42.636;23.198;2023-05-07T12:40:45;4.97;;;2.13;;
37205;SDS011;23099;42.636;23.198;2023-05-07T12:43:16;5.60;;;1.80;;
37205;SDS011;23099;42.636;23.198;2023-05-07T12:45:43;6.10;;;2.00;;
37205;SDS011;23099;42.636;23.198;2023-05-07T12:50:38;4.78;;;1.95;;
37205;SDS011;23099;42.636;23.198;2023-05-07T12:53:05;5.82;;;2.13;;
37205;SDS011;23099;42.636;23.198;2023-05-07T12:55:41;5.07;;;1.70;;
37205;SDS011;23099;42.636;23.198;2023-05-07T12:58:10;4.72;;;1.83;;
37205;SDS011;23099;42.636;23.198;2023-05-07T13:00:42;6.15;;;1.70;;
37205;SDS011;23099;42.636;23.198;2023-05-07T13:03:09;5.03;;;1.70;;
37205;SDS011;23099;42.636;23.198;2023-05-07T13:05:36;8.20;;;2.00;;
37205;SDS011;23099;42.636;23.198;2023-05-07T13:08:03;5.03;;;1.98;;
37205;SDS011;23099;42.636;23.198;2023-05-07T13:10:30;5.57;;;1.92;;
37205;SDS011;23099;42.636;23.198;2023-05-07T13:12:59;7.18;;;2.25;;
37205;SDS011;23099;42.636;23.198;2023-05-07T13:15:25;6.78;;;1.88;;
37205;SDS011;23099;42.636;23.198;2023-05-07T13:17:52;5.53;;;2.17;;
37205;SDS011;23099;42.636;23.198;2023-05-07T13:20:18;4.85;;;1.73;;
37205;SDS011;23099;42.636;23.198;2023-05-07T13:22:45;4.80;;;1.77;;
37205;SDS011;23099;42.636;23.198;2023-05-07T13:25:12;3.63;;;1.48;;
37205;SDS011;23099;42.636;23.198;2023-05-07T13:27:39;8.57;;;1.92;;
37205;SDS011;23099;42.636;23.198;2023-05-07T13:30:07;5.13;;;1.85;;
37205;SDS011;23099;42.636;23.198;2023-05-07T13:32:34;8.88;;;1.80;;
37205;SDS011;23099;42.636;23.198;2023-05-07T13:35:01;4.70;;;1.92;;
37205;SDS011;23099;42.636;23.198;2023-05-07T13:37:28;5.90;;;1.90;;
37205;SDS011;23099;42.636;23.198;2023-05-07T13:39:55;3.97;;;1.50;;
37205;SDS011;23099;42.636;23.198;2023-05-07T13:42:21;5.05;;;1.50;;
37205;SDS011;23099;42.636;23.198;2023-05-07T13:44:48;5.13;;;1.42;;
37205;SDS011;23099;42.636;23.198;2023-05-07T13:47:16;6.72;;;1.60;;
37205;SDS011;23099;42.636;23.198;2023-05-07T13:49:43;4.20;;;1.77;;
37205;SDS011;23099;42.636;23.198;2023-05-07T13:52:09;4.13;;;1.52;;
37205;SDS011;23099;42.636;23.198;2023-05-07T13:54:36;4.70;;;1.60;;
37205;SDS011;23099;42.636;23.198;2023-05-07T13:57:03;4.80;;;1.70;;
37205;SDS011;23099;42.636;23.198;2023-05-07T13:59:30;7.43;;;1.83;;
37205;SDS011;23099;42.636;23.198;2023-05-07T14:01:56;7.10;;;2.13;;
37205;SDS011;23099;42.636;23.198;2023-05-07T14:04:24;4.28;;;1.42;;
37205;SDS011;23099;42.636;23.198;2023-05-07T14:09:18;4.28;;;1.60;;
37205;SDS011;23099;42.636;23.198;2023-05-07T14:11:44;4.55;;;1.38;;
37205;SDS011;23099;42.636;23.198;2023-05-07T14:14:12;4.70;;;1.70;;
37205;SDS011;23099;42.636;23.198;2023-05-07T14:16:39;3.58;;;1.67;;
37205;SDS011;23099;42.636;23.198;2023-05-07T14:19:06;3.28;;;1.55;;
37205;SDS011;23099;42.636;23.198;2023-05-07T14:21:34;4.65;;;1.35;;
37205;SDS011;23099;42.636;23.198;2023-05-07T14:24:00;5.35;;;1.67;;
37205;SDS011;23099;42.636;23.198;2023-05-07T14:26:27;6.93;;;1.60;;
37205;SDS011;23099;42.636;23.198;2023-05-07T14:28:54;4.47;;;1.20;;
37205;SDS011;23099;42.636;23.198;2023-05-07T14:31:23;4.20;;;1.42;;
37205;SDS011;23099;42.636;23.198;2023-05-07T14:33:49;4.97;;;1.48;;
37205;SDS011;23099;42.636;23.198;2023-05-07T14:36:17;4.40;;;1.50;;
37205;SDS011;23099;42.636;23.198;2023-05-07T14:38:46;5.18;;;1.20;;
37205;SDS011;23099;42.636;23.198;2023-05-07T14:41:13;5.75;;;1.40;;
37205;SDS011;23099;42.636;23.198;2023-05-07T14:43:40;5.35;;;1.40;;
37205;SDS011;23099;42.636;23.198;2023-05-07T14:46:06;5.00;;;1.20;;
37205;SDS011;23099;42.636;23.198;2023-05-07T14:48:33;3.50;;;1.38;;
37205;SDS011;23099;42.636;23.198;2023-05-07T14:50:59;6.25;;;1.52;;
37205;SDS011;23099;42.636;23.198;2023-05-07T14:53:26;7.70;;;2.13;;
37205;SDS011;23099;42.636;23.198;2023-05-07T14:55:54;6.05;;;1.63;;
37205;SDS011;23099;42.636;23.198;2023-05-07T15:00:47;3.58;;;1.70;;
37205;SDS011;23099;42.636;23.198;2023-05-07T15:03:14;6.20;;;1.73;;
37205;SDS011;23099;42.636;23.198;2023-05-07T15:05:41;5.75;;;1.63;;
37205;SDS011;23099;42.636;23.198;2023-05-07T15:08:08;6.93;;;1.40;;
37205;SDS011;23099;42.636;23.198;2023-05-07T15:10:35;6.63;;;1.80;;